Bowling, United Kingdom
Current Conditions -  °F | °C
As of 11:20 PM on Saturday 20 Dec 2014 (Local Time) from EGPF Reporting Station
Light Rain Light Rain  
Wind Chill: 37°   Ceiling: 1500
Heat Index: 45°   Visibility: 6mi
Dew Point: 43°   Wind: 17mph
Humidity: 93%   Direction: 240°WSW
Pressure: 30.15"   Gusts: NA
Location:  55.93°N, 4.48°W
Report Text: EGPF 202320Z AUTO 24015KT 9000 -RA OVC015 07/06 Q1021
Loading
Personal Weather Stations






























Interactive Weather Map New forecast layout! Learn more

10-Day Weather Forecast

Advertisements
Track Severe Weather on mobile